Time;durP1;ratioP1;P1;durP2;ratioP2;P2;SDS_P1;SDS_P2;PMS_P1;PMS_P2;Temp;Humidity;BMP_temperature;BMP_pressure;BME280_temperature;BME280_humidity;BME280_pressure;Samples;Min_cycle;Max_cycle;Signal;HPM_P1;HPM_P2
2021/05/10 00:01:05;;;;;;;7.50;3.03;;;20.00;59.20;19.50;99940.00;;;;5060925;28;20415;-76
2021/05/10 00:03:31;;;;;;;8.38;3.80;;;19.90;58.80;19.50;99932.00;;;;5062505;28;20049;-76
2021/05/10 00:05:57;;;;;;;5.60;3.22;;;20.00;59.10;19.50;99935.00;;;;5057813;28;20047;-75
2021/05/10 00:08:25;;;;;;;4.05;2.55;;;20.00;59.20;19.50;99932.00;;;;5054269;28;20483;-75
2021/05/10 00:10:52;;;;;;;3.00;2.28;;;20.00;58.50;19.50;99930.00;;;;5055887;28;20037;-75
2021/05/10 00:13:19;;;;;;;4.20;2.50;;;20.00;58.20;19.50;99930.00;;;;5054929;28;20100;-75
2021/05/10 00:15:49;;;;;;;3.13;2.47;;;20.00;58.90;19.50;99923.00;;;;5058414;28;20032;-75
2021/05/10 00:18:17;;;;;;;4.97;2.25;;;20.00;58.50;19.50;99922.00;;;;5054964;28;20048;-76
2021/05/10 00:20:45;;;;;;;2.72;1.90;;;20.00;57.20;19.60;99916.00;;;;5048148;28;20135;-76
2021/05/10 00:23:12;;;;;;;4.25;2.00;;;20.00;57.00;19.60;99920.00;;;;5029149;28;20068;-75
2021/05/10 00:25:39;;;;;;;6.07;2.00;;;20.00;56.80;19.60;99925.00;;;;5041077;28;20458;-76
2021/05/10 00:28:06;;;;;;;1.92;1.65;;;20.10;56.70;19.70;99935.00;;;;5071631;28;20036;-76
2021/05/10 00:30:32;;;;;;;;;;;20.00;56.40;19.60;99936.00;;;;5052442;28;20452;-76
2021/05/10 00:32:59;;;;;;;3.28;1.88;;;20.10;57.70;19.70;99923.00;;;;5051367;28;19967;-75
2021/05/10 00:35:25;;;;;;;7.05;2.15;;;20.10;57.30;19.70;99920.00;;;;5075657;28;20063;-76
2021/05/10 00:37:52;;;;;;;4.32;1.70;;;20.10;57.20;19.70;99923.00;;;;5054462;28;20140;-76
2021/05/10 00:40:22;;;;;;;2.45;1.77;;;20.10;56.10;19.70;99921.00;;;;5058333;28;20079;-77
2021/05/10 00:42:50;;;;;;;3.83;1.92;;;20.10;56.10;19.70;99917.00;;;;5052803;28;20116;-76
2021/05/10 00:45:18;;;;;;;3.85;1.90;;;20.10;56.10;19.70;99906.00;;;;5057318;28;20098;-77
2021/05/10 00:47:44;;;;;;;6.00;2.00;;;20.10;57.00;19.70;99904.00;;;;5055583;28;20044;-77
2021/05/10 00:50:12;;;;;;;3.10;2.00;;;20.10;56.90;19.70;99911.00;;;;5040132;28;20115;-76
2021/05/10 00:52:39;;;;;;;3.28;1.95;;;20.10;56.90;19.70;99901.00;;;;5035117;28;20063;-76
2021/05/10 00:55:09;;;;;;;3.55;2.10;;;20.10;57.00;19.60;99890.00;;;;5038945;28;20047;-77
2021/05/10 00:57:49;;;;;;;2.05;1.80;;;20.10;57.10;19.60;99899.00;;;;5049843;28;20135;-76
2021/05/10 01:00:16;;;;;;;4.40;1.80;;;20.10;56.10;19.60;99884.00;;;;5052494;28;20056;-76
2021/05/10 01:02:43;;;;;;;3.58;1.92;;;20.10;57.20;19.60;99883.00;;;;5052281;28;20041;-75
2021/05/10 01:05:11;;;;;;;4.65;1.70;;;20.00;57.10;19.50;99884.00;;;;5055831;28;20048;-75
2021/05/10 01:07:37;;;;;;;9.43;1.98;;;20.00;57.20;19.50;99881.00;;;;5054199;28;20464;-75
2021/05/10 01:10:11;;;;;;;3.10;1.80;;;20.00;56.40;19.50;99888.00;;;;5058647;28;20045;-76
2021/05/10 01:12:37;;;;;;;2.42;1.88;;;20.00;57.20;19.50;99876.00;;;;5043919;28;20040;-76
2021/05/10 01:15:07;;;;;;;3.97;1.73;;;19.90;57.00;19.50;99876.00;;;;5055272;28;20040;-75
2021/05/10 01:17:35;;;;;;;3.22;1.75;;;19.90;56.10;19.50;99870.00;;;;5058291;28;20064;-76
2021/05/10 01:20:12;;;;;;;7.28;1.92;;;19.90;57.00;19.50;99872.00;;;;5049032;28;20052;-76
2021/05/10 01:22:50;;;;;;;5.55;2.05;;;19.90;56.00;19.40;99871.00;;;;5060293;28;20036;-77
2021/05/10 01:25:29;;;;;;;3.72;1.73;;;19.90;56.90;19.40;99868.00;;;;5035234;28;20051;-77
2021/05/10 01:27:57;;;;;;;5.97;2.15;;;19.90;56.90;19.50;99863.00;;;;5055603;28;20040;-76
2021/05/10 01:30:31;;;;;;;2.50;1.85;;;19.90;56.00;19.50;99864.00;;;;5042746;28;20057;-76
2021/05/10 01:32:58;;;;;;;3.10;1.50;;;19.90;56.90;19.40;99863.00;;;;5056701;28;20032;-76
2021/05/10 01:35:27;;;;;;;;;;;20.80;56.50;19.30;99862.00;;;;5055138;28;20056;-75
2021/05/10 01:37:53;;;;;;;3.25;1.60;;;19.80;57.00;19.30;99870.00;;;;5056812;28;19928;-76
2021/05/10 01:40:20;;;;;;;3.88;1.55;;;19.90;57.00;19.30;99866.00;;;;5056978;28;20040;-76
2021/05/10 01:42:46;;;;;;;5.15;1.73;;;19.80;56.70;19.30;99874.00;;;;5059976;28;20043;-76
2021/05/10 01:45:12;;;;;;;3.65;1.98;;;19.80;57.90;19.20;99868.00;;;;5054609;28;20045;-76
2021/05/10 01:47:40;;;;;;;3.65;2.10;;;19.70;57.20;19.20;99869.00;;;;5054004;28;20107;-76
2021/05/10 01:50:11;;;;;;;3.00;1.70;;;19.70;57.90;19.10;99871.00;;;;5062579;28;20136;-76
2021/05/10 01:52:38;;;;;;;4.93;1.90;;;19.70;58.20;19.10;99873.00;;;;5063176;28;20102;-76
2021/05/10 01:55:05;;;;;;;3.65;2.03;;;19.60;58.20;19.00;99861.00;;;;5058858;28;20062;-75
2021/05/10 01:57:30;;;;;;;5.30;1.75;;;19.50;57.80;19.00;99853.00;;;;5051800;28;20045;-76
2021/05/10 01:59:56;;;;;;;4.97;1.70;;;19.50;58.50;18.90;99854.00;;;;5070553;28;20043;-75
2021/05/10 02:02:22;;;;;;;4.05;1.70;;;19.50;58.00;18.90;99854.00;;;;5060346;28;20036;-76
2021/05/10 02:05:22;;;;;;;2.42;1.42;;;19.40;58.70;18.80;99860.00;;;;5069390;28;20048;-76
2021/05/10 02:07:54;;;;;;;2.67;1.65;;;19.40;59.30;18.80;99849.00;;;;5039862;28;20049;-77
2021/05/10 02:10:39;;;;;;;4.75;1.95;;;19.30;57.90;18.80;99850.00;;;;5085644;27;20129;-77
2021/05/10 02:13:17;;;;;;;4.60;1.77;;;19.30;58.20;18.80;99847.00;;;;5055878;28;20051;-76
2021/05/10 02:15:46;;;;;;;3.10;1.80;;;19.30;58.00;18.80;99847.00;;;;5060376;28;20052;-77
2021/05/10 02:18:15;;;;;;;5.50;1.80;;;19.30;58.20;18.80;99842.00;;;;5062943;28;20119;-76
2021/05/10 02:20:42;;;;;;;4.07;1.58;;;19.30;57.80;18.80;99841.00;;;;5042448;28;20053;-77
2021/05/10 02:23:22;;;;;;;5.70;1.83;;;19.30;56.70;18.80;99840.00;;;;5059275;28;20063;-76
2021/05/10 02:25:58;;;;;;;4.20;1.70;;;19.30;57.60;18.80;99832.00;;;;5059533;28;20079;-76
2021/05/10 02:28:26;;;;;;;3.17;1.88;;;19.30;57.50;18.80;99836.00;;;;5060964;28;20083;-76
2021/05/10 02:30:55;;;;;;;5.40;1.90;;;19.30;57.40;18.80;99829.00;;;;5044819;28;20048;-77
2021/05/10 02:33:28;;;;;;;1.90;1.45;;;19.30;56.60;18.80;99828.00;;;;5044527;28;20041;-77
2021/05/10 02:35:55;;;;;;;3.25;1.70;;;19.30;57.50;18.80;99826.00;;;;5058583;28;20032;-77
2021/05/10 02:38:23;;;;;;;3.90;1.77;;;19.30;56.60;18.80;99829.00;;;;5071552;28;22655;-75
2021/05/10 02:40:49;;;;;;;;;;;19.30;56.50;18.70;99831.00;;;;5062165;28;20036;-76
2021/05/10 02:43:16;;;;;;;4.28;1.88;;;19.30;56.50;18.80;99828.00;;;;5059783;28;20313;-76
2021/05/10 02:45:43;;;;;;;;;;;19.30;56.40;18.70;99830.00;;;;5060826;28;20072;-75
2021/05/10 02:48:10;;;;;;;5.70;1.67;;;19.30;57.20;18.80;99819.00;;;;5058583;28;19924;-77
2021/05/10 02:50:36;;;;;;;;;;;19.30;57.00;18.70;99827.00;;;;5023734;28;20132;-76
2021/05/10 02:53:02;;;;;;;2.35;1.60;;;19.30;56.80;18.80;99824.00;;;;5058491;28;20022;-76
2021/05/10 02:55:28;;;;;;;2.63;1.47;;;19.30;57.00;18.80;99819.00;;;;5052914;28;20025;-76
2021/05/10 02:57:55;;;;;;;2.05;1.55;;;19.30;57.00;18.80;99822.00;;;;5058540;28;20353;-76
2021/05/10 03:00:24;;;;;;;3.15;1.67;;;19.30;56.10;18.80;99823.00;;;;5060786;28;20625;-76
2021/05/10 03:02:51;;;;;;;3.22;1.50;;;19.30;57.10;18.80;99836.00;;;;5054060;28;20548;-77
2021/05/10 03:05:18;;;;;;;6.07;1.83;;;19.30;56.70;18.90;99826.00;;;;5059267;28;20522;-76
2021/05/10 03:07:45;;;;;;;10.65;2.00;;;19.30;56.60;18.90;99848.00;;;;5052276;28;20028;-81
2021/05/10 03:10:14;;;;;;;6.05;1.50;;;19.30;57.10;18.80;99831.00;;;;5059310;28;20037;-83
2021/05/10 03:12:42;;;;;;;4.85;1.67;;;19.30;57.40;18.90;99823.00;;;;5058754;28;20392;-80
2021/05/10 03:15:11;;;;;;;5.53;1.50;;;19.30;58.00;18.80;99819.00;;;;5059255;28;20083;-80
2021/05/10 03:17:38;;;;;;;2.95;1.60;;;19.30;56.70;18.80;99818.00;;;;5057840;28;20052;-79
2021/05/10 03:20:09;;;;;;;6.55;1.55;;;19.20;57.70;18.80;99812.00;;;;5059963;28;20052;-79
2021/05/10 03:22:35;;;;;;;4.75;1.40;;;19.30;56.60;18.90;99820.00;;;;5056047;28;20131;-79
2021/05/10 03:25:03;;;;;;;9.20;1.90;;;19.30;57.30;18.90;99813.00;;;;5055995;28;20044;-78
2021/05/10 03:27:34;;;;;;;;;;;19.30;57.10;18.80;99823.00;;;;5028334;28;20071;-78
2021/05/10 03:30:00;;;;;;;3.85;1.35;;;19.30;56.80;18.90;99825.00;;;;5058807;28;20007;-77
2021/05/10 03:32:26;;;;;;;5.18;1.65;;;19.40;56.70;19.00;99809.00;;;;5062387;28;20436;-78
2021/05/10 03:34:52;;;;;;;3.25;1.30;;;19.40;56.50;19.00;99818.00;;;;5060718;28;20559;-78
2021/05/10 03:37:17;;;;;;;3.95;1.42;;;19.50;56.70;19.10;99825.00;;;;5061820;28;20085;-77
2021/05/10 03:39:43;;;;;;;7.75;1.60;;;19.50;55.20;19.10;99828.00;;;;5055922;28;20132;-77
2021/05/10 03:42:09;;;;;;;4.78;1.42;;;19.50;56.30;19.10;99804.00;;;;5065871;28;20032;-78
2021/05/10 03:44:35;;;;;;;2.88;1.50;;;19.50;55.00;19.10;99825.00;;;;5063800;28;20439;-78
2021/05/10 03:47:01;;;;;;;7.50;1.92;;;19.50;56.30;19.10;99829.00;;;;5056209;28;20320;-78
2021/05/10 03:49:27;;;;;;;5.88;1.52;;;19.60;55.90;19.10;99831.00;;;;5062580;28;20607;-79
2021/05/10 03:51:53;;;;;;;4.45;1.70;;;19.60;55.80;19.20;99834.00;;;;5063998;28;20059;-78
2021/05/10 03:54:19;;;;;;;4.68;1.50;;;19.60;55.70;19.20;99818.00;;;;5059188;28;20068;-79
2021/05/10 03:56:44;;;;;;;5.75;1.58;;;19.60;55.60;19.20;99826.00;;;;5058854;28;20049;-78
2021/05/10 03:59:10;;;;;;;5.43;1.52;;;19.60;55.60;19.20;99818.00;;;;5058376;28;20377;-78
2021/05/10 04:01:36;;;;;;;5.00;1.40;;;19.60;55.10;19.30;99828.00;;;;5059562;28;20040;-78
2021/05/10 04:14:50;;;;;;;2.80;1.27;;;19.80;54.10;19.40;99821.00;;;;5052561;28;20135;-77
2021/05/10 04:17:17;;;;;;;4.13;1.30;;;19.90;52.50;19.50;99829.00;;;;5057252;28;20187;-78
2021/05/10 04:19:43;;;;;;;3.55;1.35;;;19.90;54.30;19.50;99834.00;;;;5060982;28;21065;-76
2021/05/10 04:22:08;;;;;;;5.65;1.30;;;19.90;54.30;19.50;99832.00;;;;5061770;28;20134;-77
2021/05/10 04:24:34;;;;;;;6.63;1.52;;;19.90;53.90;19.50;99838.00;;;;5061908;28;20048;-74
2021/05/10 04:27:04;;;;;;;3.88;1.45;;;19.90;53.80;19.50;99846.00;;;;5060568;28;20045;-75
2021/05/10 04:29:30;;;;;;;5.35;1.20;;;20.00;53.80;19.50;99851.00;;;;5051141;28;20036;-74
2021/05/10 04:31:56;;;;;;;3.80;1.40;;;19.90;52.60;19.60;99849.00;;;;5061640;28;20052;-75
2021/05/10 04:34:22;;;;;;;3.03;1.33;;;20.00;53.50;19.60;99866.00;;;;5061712;28;20055;-75
2021/05/10 04:36:48;;;;;;;6.10;1.63;;;20.00;53.50;19.60;99863.00;;;;5053990;28;21003;-72
2021/05/10 04:39:13;;;;;;;4.55;1.40;;;20.00;53.30;19.60;99864.00;;;;5061286;28;20048;-75
2021/05/10 04:41:39;;;;;;;2.63;1.33;;;20.00;53.10;19.60;99871.00;;;;5060204;28;20036;-75
2021/05/10 04:44:06;;;;;;;5.72;1.52;;;20.00;51.80;19.60;99872.00;;;;5059299;28;20606;-75
2021/05/10 04:46:32;;;;;;;5.53;1.23;;;20.10;53.50;19.60;99883.00;;;;5056732;28;20045;-75
2021/05/10 04:48:57;;;;;;;3.83;1.10;;;20.10;53.60;19.60;99890.00;;;;5036722;28;20055;-76
2021/05/10 04:51:24;;;;;;;3.70;1.40;;;20.00;52.40;19.60;99890.00;;;;5034799;28;20392;-76
2021/05/10 04:53:50;;;;;;;3.80;1.40;;;20.00;53.70;19.60;99897.00;;;;5049109;28;20517;-76
2021/05/10 04:56:16;;;;;;;5.70;1.30;;;20.00;51.90;19.60;99898.00;;;;5050013;28;20071;-75
2021/05/10 04:58:42;;;;;;;10.30;1.65;;;20.10;53.80;19.70;99912.00;;;;5057800;28;20127;-75
2021/05/10 05:01:08;;;;;;;3.08;1.20;;;20.10;53.60;19.60;99926.00;;;;5056771;28;20037;-76
2021/05/10 05:03:34;;;;;;;4.72;1.13;;;20.10;52.80;19.60;99918.00;;;;5057826;28;20604;-76
2021/05/10 05:06:00;;;;;;;5.03;1.40;;;20.00;53.90;19.60;99935.00;;;;5054591;28;20097;-74
2021/05/10 05:08:26;;;;;;;4.63;1.40;;;20.00;53.00;19.60;99950.00;;;;5041145;28;20116;-76
2021/05/10 05:10:52;;;;;;;2.83;1.10;;;20.00;53.40;19.50;99960.00;;;;5047577;28;20539;-76
2021/05/10 05:13:23;;;;;;;6.35;1.52;;;19.90;54.80;19.40;99949.00;;;;5057071;28;20053;-75
2021/05/10 05:15:49;;;;;;;8.38;1.30;;;19.90;55.30;19.40;99939.00;;;;5053115;28;20517;-75
2021/05/10 05:18:15;;;;;;;5.35;1.30;;;19.80;55.90;19.30;99932.00;;;;5058096;28;20120;-75
2021/05/10 05:20:41;;;;;;;11.20;1.70;;;19.80;56.50;19.20;99933.00;;;;5050829;28;20044;-75
2021/05/10 05:23:21;;;;;;;11.80;1.90;;;19.70;56.80;19.10;99919.00;;;;5034167;28;20502;-76
2021/05/10 05:25:54;;;;;;;3.28;1.92;;;19.60;57.70;19.10;99926.00;;;;5057020;28;20490;-76
2021/05/10 05:28:20;;;;;;;5.18;1.40;;;19.60;57.60;19.10;99952.00;;;;5058106;28;20053;-76
2021/05/10 05:30:47;;;;;;;6.93;1.60;;;19.50;57.70;19.10;99944.00;;;;5060298;28;20033;-75
2021/05/10 05:33:13;;;;;;;4.80;1.38;;;19.50;56.90;19.00;99957.00;;;;5042289;28;20275;-76
2021/05/10 05:35:40;;;;;;;6.60;1.63;;;19.50;58.10;19.00;99963.00;;;;5062218;28;20155;-76
2021/05/10 05:38:09;;;;;;;2.50;1.20;;;19.40;58.10;18.90;99991.00;;;;5071170;28;20037;-76
2021/05/10 05:40:35;;;;;;;4.68;1.30;;;19.40;58.50;18.90;100025.00;;;;5059921;28;20309;-76
2021/05/10 05:43:01;;;;;;;5.25;1.23;;;19.30;58.20;18.80;100042.00;;;;5056862;28;20064;-76
2021/05/10 05:45:27;;;;;;;4.00;1.27;;;19.30;58.70;18.80;100046.00;;;;5055646;28;20033;-76
2021/05/10 05:47:53;;;;;;;3.67;1.17;;;19.30;59.10;18.80;100060.00;;;;5056788;28;20498;-76
2021/05/10 05:50:19;;;;;;;2.88;1.00;;;19.30;59.40;18.70;100057.00;;;;5046292;28;20041;-76
2021/05/10 05:52:45;;;;;;;9.48;1.27;;;19.20;59.50;18.70;100062.00;;;;5057437;28;20096;-76
2021/05/10 05:55:12;;;;;;;1.50;0.90;;;19.20;59.90;18.60;100074.00;;;;5058313;28;20062;-76
2021/05/10 05:57:38;;;;;;;1.45;0.98;;;19.10;58.80;18.60;100067.00;;;;5062634;28;20423;-77
2021/05/10 06:00:05;;;;;;;3.38;0.98;;;19.10;59.80;18.50;100089.00;;;;5044469;28;20037;-76
2021/05/10 06:02:36;;;;;;;3.92;0.90;;;19.00;59.80;18.50;100099.00;;;;5059189;28;20036;-75
2021/05/10 06:05:03;;;;;;;2.30;0.98;;;19.00;59.90;18.50;100113.00;;;;5058261;28;20086;-76
2021/05/10 06:07:29;;;;;;;;;;;19.00;60.00;18.30;100109.00;;;;5064543;28;20032;-76
2021/05/10 06:09:55;;;;;;;3.20;1.00;;;18.90;60.60;18.40;100121.00;;;;5058269;28;19936;-76
2021/05/10 06:12:21;;;;;;;1.20;0.93;;;18.90;60.30;18.50;100131.00;;;;5054763;28;20072;-75
2021/05/10 06:14:47;;;;;;;2.30;1.00;;;19.00;60.80;18.40;100134.00;;;;5058713;28;20060;-76
2021/05/10 06:17:13;;;;;;;2.38;1.40;;;18.90;60.50;18.40;100138.00;;;;5065349;28;20064;-77
2021/05/10 06:19:39;;;;;;;1.27;0.90;;;18.90;61.00;18.40;100148.00;;;;5057851;28;20083;-75
2021/05/10 06:22:04;;;;;;;4.10;1.17;;;18.90;61.10;18.40;100148.00;;;;5064603;28;20118;-76
2021/05/10 06:24:30;;;;;;;2.15;1.25;;;18.80;61.10;18.40;100165.00;;;;5058966;28;21561;-76
2021/05/10 06:26:56;;;;;;;1.23;1.00;;;18.80;61.50;18.40;100158.00;;;;5057059;28;20040;-77
2021/05/10 06:29:22;;;;;;;2.35;1.30;;;18.80;62.20;18.40;100158.00;;;;5073255;28;20471;-76
2021/05/10 06:31:48;;;;;;;2.72;1.20;;;18.80;61.70;18.40;100154.00;;;;5064606;28;20029;-77
2021/05/10 06:34:14;;;;;;;3.13;1.20;;;18.90;62.20;18.60;100147.00;;;;5060777;28;20132;-76
2021/05/10 06:36:40;;;;;;;2.15;1.35;;;18.90;62.00;18.60;100172.00;;;;5061714;28;20045;-77
2021/05/10 06:39:06;;;;;;;2.95;1.65;;;19.00;62.00;18.80;100172.00;;;;5057572;28;20511;-76
2021/05/10 06:41:32;;;;;;;2.20;1.20;;;19.10;62.10;18.80;100168.00;;;;5072589;28;20044;-77
2021/05/10 06:43:57;;;;;;;0.90;0.90;;;19.20;61.30;18.80;100184.00;;;;5057937;28;20039;-77
2021/05/10 06:46:25;;;;;;;;;;;19.20;61.40;18.70;100192.00;;;;5047785;28;20059;-76
2021/05/10 06:48:51;;;;;;;1.50;0.90;;;19.20;61.90;18.70;100198.00;;;;5050054;28;20502;-75
2021/05/10 06:51:16;;;;;;;3.28;0.93;;;19.20;61.20;18.70;100168.00;;;;5040605;28;20124;-76
2021/05/10 06:53:43;;;;;;;3.10;0.95;;;19.10;61.10;18.70;100177.00;;;;5053887;28;20485;-75
2021/05/10 06:56:08;;;;;;;3.17;0.90;;;19.10;61.00;18.70;100164.00;;;;5057240;28;20090;-76
2021/05/10 06:58:34;;;;;;;3.88;1.00;;;19.10;60.70;18.70;100171.00;;;;5060983;28;20048;-75
2021/05/10 07:01:00;;;;;;;2.95;0.93;;;19.10;61.00;18.70;100171.00;;;;5056963;28;20037;-77
2021/05/10 07:03:26;;;;;;;1.60;0.90;;;19.00;60.00;18.60;100178.00;;;;5054042;28;20048;-76
2021/05/10 07:05:52;;;;;;;2.63;1.00;;;20.50;62.00;18.60;100176.00;;;;5056412;28;20169;-75
2021/05/10 07:08:18;;;;;;;2.05;1.25;;;19.10;61.30;18.70;100181.00;;;;5060275;28;20483;-76
2021/05/10 07:10:51;;;;;;;6.07;1.42;;;19.10;60.60;18.70;100170.00;;;;5063390;28;20056;-76
2021/05/10 07:13:17;;;;;;;3.47;1.10;;;19.10;60.90;18.70;100189.00;;;;5042887;28;20059;-76
2021/05/10 07:15:44;;;;;;;3.95;1.35;;;19.10;61.00;18.70;100201.00;;;;5040068;28;20047;-76
2021/05/10 07:18:14;;;;;;;1.63;1.30;;;19.20;60.40;18.80;100208.00;;;;5054930;28;20044;-76
2021/05/10 07:20:43;;;;;;;2.28;1.08;;;19.30;61.20;18.90;100220.00;;;;5058734;28;20119;-77
2021/05/10 07:23:10;;;;;;;2.05;1.20;;;19.30;60.90;18.90;100233.00;;;;5070382;28;20109;-76
2021/05/10 07:25:43;;;;;;;;;;;19.30;60.90;18.60;100204.00;;;;5055668;28;20043;-76
2021/05/10 07:28:11;;;;;;;3.65;1.50;;;19.20;60.60;18.70;100217.00;;;;5075652;28;20470;-76
2021/05/10 07:30:38;;;;;;;3.75;1.30;;;19.10;60.50;18.70;100233.00;;;;5059173;28;20051;-75
2021/05/10 07:33:04;;;;;;;2.38;1.35;;;19.10;60.80;18.80;100224.00;;;;5044359;28;20571;-76
2021/05/10 07:35:31;;;;;;;3.83;1.65;;;19.10;59.80;18.80;100224.00;;;;5062082;28;20086;-74
2021/05/10 07:37:57;;;;;;;3.55;1.40;;;19.20;60.70;18.90;100225.00;;;;5059325;28;20036;-77
2021/05/10 07:40:24;;;;;;;2.47;1.83;;;19.30;60.60;19.00;100236.00;;;;5056147;28;20106;-77
2021/05/10 07:42:51;;;;;;;2.25;1.23;;;19.40;60.00;19.10;100259.00;;;;5057961;28;20082;-76
2021/05/10 07:45:19;;;;;;;1.80;1.40;;;19.40;59.60;19.20;100262.00;;;;5062797;28;20460;-76
2021/05/10 07:47:48;;;;;;;4.50;1.48;;;19.50;60.50;19.20;100279.00;;;;5060880;28;20318;-76
2021/05/10 07:50:15;;;;;;;2.25;1.40;;;19.50;60.10;19.10;100281.00;;;;5041541;28;20117;-76
2021/05/10 07:52:41;;;;;;;1.70;1.45;;;19.50;60.10;19.00;100290.00;;;;5036525;28;20112;-76
2021/05/10 07:55:07;;;;;;;1.40;1.30;;;19.50;60.10;18.90;100281.00;;;;5055352;28;20789;-77
2021/05/10 07:57:33;;;;;;;2.28;1.23;;;19.40;60.20;18.80;100288.00;;;;5059338;28;20419;-76
2021/05/10 08:00:01;;;;;;;3.78;1.35;;;19.30;60.60;18.70;100286.00;;;;5062877;28;20059;-75
2021/05/10 08:02:26;;;;;;;3.53;1.38;;;19.30;60.70;18.70;100295.00;;;;5059165;28;20029;-76
2021/05/10 08:04:53;;;;;;;3.85;1.35;;;19.20;61.10;18.60;100281.00;;;;5057780;28;20549;-77
2021/05/10 08:07:19;;;;;;;2.10;1.67;;;19.10;60.90;18.60;100273.00;;;;5061188;28;20044;-76
2021/05/10 08:09:46;;;;;;;3.17;1.70;;;19.00;60.50;18.50;100284.00;;;;5057798;28;20041;-76
2021/05/10 08:12:13;;;;;;;4.63;1.93;;;18.90;60.30;18.40;100272.00;;;;5060486;28;20307;-76
2021/05/10 08:14:39;;;;;;;2.38;1.35;;;18.90;61.30;18.40;100288.00;;;;5058626;28;20065;-77
2021/05/10 08:17:05;;;;;;;1.75;1.27;;;18.90;61.40;18.40;100287.00;;;;5054054;28;20499;-77
2021/05/10 08:19:31;;;;;;;3.13;1.15;;;18.90;61.10;18.50;100297.00;;;;5056007;28;20906;-77
2021/05/10 08:21:59;;;;;;;3.45;1.30;;;18.90;61.90;18.50;100292.00;;;;5058834;28;20044;-76
2021/05/10 08:24:25;;;;;;;3.08;1.65;;;19.00;62.00;18.70;100293.00;;;;5062115;28;20512;-77
2021/05/10 08:26:51;;;;;;;2.57;1.37;;;19.00;61.80;18.70;100298.00;;;;5059724;28;20101;-77
2021/05/10 08:29:20;;;;;;;6.30;1.33;;;19.10;61.50;18.70;100306.00;;;;5057794;28;20059;-77
2021/05/10 08:31:46;;;;;;;7.15;1.27;;;19.10;62.80;18.60;100311.00;;;;5061130;28;20037;-77
2021/05/10 08:34:13;;;;;;;3.20;1.30;;;19.10;61.90;18.50;100340.00;;;;5058879;28;20045;-77
2021/05/10 08:36:39;;;;;;;2.25;1.48;;;19.00;61.20;18.40;100332.00;;;;5058674;28;20040;-76
2021/05/10 08:39:08;;;;;;;2.92;1.10;;;18.80;61.10;18.30;100338.00;;;;5059222;28;20051;-77
2021/05/10 08:41:40;;;;;;;1.52;1.10;;;18.80;61.80;18.20;100330.00;;;;5057417;28;20044;-76
2021/05/10 08:44:08;;;;;;;1.95;1.08;;;18.70;60.10;18.10;100347.00;;;;5070266;28;20067;-77
2021/05/10 08:46:37;;;;;;;4.22;1.17;;;18.60;61.60;18.00;100341.00;;;;5058421;28;20051;-77
2021/05/10 08:49:04;;;;;;;2.28;1.00;;;18.50;62.40;17.80;100362.00;;;;5034363;28;20614;-77
2021/05/10 08:51:36;;;;;;;4.53;1.05;;;18.40;62.80;17.60;100374.00;;;;5064860;28;20040;-76
2021/05/10 08:54:15;;;;;;;2.17;1.10;;;18.20;62.80;17.40;100380.00;;;;5074321;28;20037;-77
2021/05/10 08:56:41;;;;;;;1.42;1.13;;;18.00;63.50;17.20;100382.00;;;;5056698;28;20095;-79
2021/05/10 08:59:07;;;;;;;4.55;1.20;;;17.80;64.40;17.00;100397.00;;;;5057727;28;20510;-78
2021/05/10 09:01:57;;;;;;;2.10;1.25;;;17.60;65.40;16.70;100423.00;;;;5060805;28;20033;-80
2021/05/10 09:04:32;;;;;;;2.63;1.27;;;17.40;66.10;16.50;100409.00;;;;5075687;28;20772;-79
2021/05/10 09:07:18;;;;;;;1.52;1.20;;;17.20;66.20;16.30;100412.00;;;;5057558;28;20483;-78
2021/05/10 09:09:58;;;;;;;3.85;1.42;;;17.00;67.60;16.20;100401.00;;;;5065336;28;20064;-78
2021/05/10 09:12:48;;;;;;;4.28;2.70;;;16.90;66.60;16.10;100427.00;;;;5060850;28;20068;-79
2021/05/10 09:15:27;;;;;;;2.40;1.20;;;16.80;67.50;16.00;100418.00;;;;5057066;28;20036;-77
2021/05/10 09:18:05;;;;;;;2.50;1.42;;;16.80;67.90;16.10;100413.00;;;;5065342;28;20053;-77
2021/05/10 09:20:42;;;;;;;1.40;1.30;;;16.70;68.50;16.20;100419.00;;;;5066720;28;20591;-77
2021/05/10 09:23:13;;;;;;;1.90;1.50;;;16.80;68.90;16.30;100415.00;;;;5059549;28;20049;-77
2021/05/10 09:25:45;;;;;;;3.45;1.50;;;16.90;68.50;16.30;100404.00;;;;5063949;28;20064;-76
2021/05/10 09:28:25;;;;;;;3.97;1.95;;;16.90;68.50;16.30;100400.00;;;;5067506;28;20037;-77
2021/05/10 09:30:58;;;;;;;3.67;1.63;;;17.00;69.40;16.40;100408.00;;;;5062707;28;20173;-77
2021/05/10 09:33:28;;;;;;;3.95;1.67;;;17.00;68.90;16.50;100422.00;;;;5060355;28;20459;-78
2021/05/10 09:36:07;;;;;;;2.17;1.55;;;16.80;68.90;16.50;100424.00;;;;5063466;28;20126;-77
2021/05/10 09:38:38;;;;;;;4.82;1.77;;;17.10;69.30;16.50;100427.00;;;;5063028;28;20064;-77
2021/05/10 09:41:09;;;;;;;4.95;1.80;;;17.10;68.40;16.60;100432.00;;;;5063793;28;20063;-77
2021/05/10 09:43:38;;;;;;;2.85;1.60;;;17.20;68.70;16.70;100432.00;;;;5081612;28;20041;-78
2021/05/10 09:46:12;;;;;;;4.30;1.65;;;17.20;67.80;16.70;100450.00;;;;5057869;28;20534;-77
2021/05/10 09:48:44;;;;;;;3.13;1.80;;;17.20;67.90;16.70;100440.00;;;;5063916;28;20451;-76
2021/05/10 09:51:16;;;;;;;4.72;2.90;;;17.30;68.90;16.70;100441.00;;;;5049278;28;20128;-77
2021/05/10 09:53:47;;;;;;;5.07;2.25;;;17.30;68.90;16.70;100453.00;;;;5063033;28;20079;-77
2021/05/10 09:56:27;;;;;;;3.97;2.25;;;17.30;70.00;16.70;100459.00;;;;5048428;28;20052;-76
2021/05/10 09:58:58;;;;;;;3.25;2.30;;;17.30;70.60;16.70;100460.00;;;;5058382;28;20072;-77
2021/05/10 10:01:26;;;;;;;5.38;2.30;;;17.30;70.60;16.60;100478.00;;;;5064013;28;20091;-77
2021/05/10 10:03:59;;;;;;;3.78;2.45;;;17.20;71.80;16.60;100487.00;;;;5062617;28;20036;-77
2021/05/10 10:06:30;;;;;;;4.35;2.33;;;17.20;71.40;16.60;100488.00;;;;5060950;28;20151;-76
2021/05/10 10:08:57;;;;;;;4.47;3.80;;;17.10;71.10;16.50;100495.00;;;;5061136;28;20047;-76
2021/05/10 10:11:26;;;;;;;4.88;2.20;;;17.00;70.10;16.60;100498.00;;;;5055902;28;20157;-75
2021/05/10 10:13:55;;;;;;;3.53;2.15;;;17.10;71.80;16.50;100506.00;;;;5062561;28;20102;-77
2021/05/10 10:16:26;;;;;;;7.95;2.45;;;17.10;72.10;16.50;100510.00;;;;5064374;28;20108;-76
2021/05/10 10:18:55;;;;;;;3.88;2.05;;;17.10;71.50;16.50;100514.00;;;;5059086;28;20615;-76
2021/05/10 10:21:21;;;;;;;2.92;2.05;;;17.10;71.80;16.40;100488.00;;;;5062850;28;20136;-75
2021/05/10 10:23:54;;;;;;;3.58;2.35;;;17.00;71.80;16.40;100499.00;;;;5048820;28;20052;-76
2021/05/10 10:26:22;;;;;;;3.58;2.17;;;17.00;71.70;16.50;100513.00;;;;5054705;28;20064;-76
2021/05/10 10:28:49;;;;;;;4.85;2.60;;;17.00;71.70;16.60;100508.00;;;;5057649;28;20097;-76
2021/05/10 10:31:36;;;;;;;3.95;2.65;;;17.20;71.30;16.80;100505.00;;;;5060543;28;20039;-77
2021/05/10 10:34:10;;;;;;;6.10;2.55;;;17.30;73.40;16.90;100520.00;;;;5042113;28;20136;-77
2021/05/10 10:36:49;;;;;;;4.03;2.72;;;17.40;71.70;17.00;100524.00;;;;5054332;28;21514;-76
2021/05/10 10:39:23;;;;;;;5.88;2.65;;;17.40;71.60;16.90;100526.00;;;;5061876;28;20048;-77
2021/05/10 10:42:04;;;;;;;5.95;2.30;;;17.40;71.20;16.90;100546.00;;;;5056028;28;20553;-77
2021/05/10 10:44:52;;;;;;;3.55;2.80;;;17.40;71.80;16.80;100543.00;;;;5058463;28;20115;-77
2021/05/10 10:47:45;;;;;;;4.20;2.70;;;17.40;71.30;16.80;100533.00;;;;5044755;28;20546;-76
2021/05/10 10:50:19;;;;;;;3.65;2.78;;;17.40;71.60;16.90;100544.00;;;;5058698;28;20519;-76
2021/05/10 10:53:00;;;;;;;4.15;2.90;;;17.40;71.80;17.00;100517.00;;;;5063936;28;20717;-76
2021/05/10 10:55:41;;;;;;;4.55;2.83;;;17.50;72.20;17.00;100517.00;;;;5047855;28;20604;-75
2021/05/10 10:58:20;;;;;;;4.00;2.95;;;17.50;71.60;17.10;100522.00;;;;5059968;28;20051;-75
2021/05/10 11:01:11;;;;;;;5.95;2.92;;;17.60;71.80;17.10;100535.00;;;;5059148;28;20044;-73
2021/05/10 11:03:37;;;;;;;8.63;5.85;;;17.60;71.20;17.10;100554.00;;;;5057404;28;20041;-76
2021/05/10 11:06:05;;;;;;;4.20;2.90;;;17.60;70.90;17.20;100553.00;;;;5038769;28;20071;-77
2021/05/10 11:08:40;;;;;;;4.00;2.70;;;17.70;71.00;17.20;100548.00;;;;5057419;28;20036;-76
2021/05/10 11:11:07;;;;;;;7.00;3.00;;;17.70;70.00;17.30;100558.00;;;;5065258;28;20127;-77